Time,TemperatureF,DewpointF,PressureIn,WindDirection,WindDirectionDegrees,WindSpeedMPH,WindSpeedGustMPH,Humidity,HourlyPrecipIn,Conditions,Clouds,dailyrainin,SolarRadiationWatts/m^2,SoftwareType,DateUTC
2013-03-26 00:06:00,78.2,72.0,29.98,ESE,117,1.0,3.0,82,0.00,,,0.00,0,weatherlink.com 1.10,2013-03-26 04:06:00,
2013-03-26 00:21:00,78.0,72.0,29.97,ESE,117,0.0,4.0,82,0.00,,,0.00,0,weatherlink.com 1.10,2013-03-26 04:21:00,
2013-03-26 00:36:00,78.0,73.0,29.96,ESE,117,0.0,2.0,83,0.00,,,0.00,0,weatherlink.com 1.10,2013-03-26 04:36:00,
2013-03-26 00:51:00,77.8,73.0,29.96,ESE,117,0.0,3.0,84,0.00,,,0.00,0,weatherlink.com 1.10,2013-03-26 04:51:00,
2013-03-26 01:06:00,77.7,73.0,29.96,ESE,123,3.0,3.0,85,0.00,,,0.00,0,weatherlink.com 1.10,2013-03-26 05:06:00,
2013-03-26 01:35:00,77.3,73.0,29.95,SE,146,0.0,3.0,86,0.00,,,0.00,0,weatherlink.com 1.10,2013-03-26 05:35:00,
2013-03-26 01:50:00,77.1,73.0,29.94,SE,146,0.0,2.0,86,0.00,,,0.00,0,weatherlink.com 1.10,2013-03-26 05:50:00,
2013-03-26 02:05:00,77.0,73.0,29.94,SE,146,0.0,2.0,87,0.00,,,0.00,0,weatherlink.com 1.10,2013-03-26 06:05:00,
2013-03-26 02:20:00,76.8,73.0,29.94,SE,146,0.0,2.0,87,0.00,,,0.00,0,weatherlink.com 1.10,2013-03-26 06:20:00,
2013-03-26 02:35:00,76.6,73.0,29.94,SE,144,3.0,4.0,87,0.00,,,0.00,0,weatherlink.com 1.10,2013-03-26 06:35:00,
2013-03-26 02:50:00,76.5,72.0,29.94,SE,144,0.0,3.0,87,0.00,,,0.00,0,weatherlink.com 1.10,2013-03-26 06:50:00,
2013-03-26 03:05:00,76.5,72.0,29.93,SE,144,3.0,4.0,87,0.00,,,0.00,0,weatherlink.com 1.10,2013-03-26 07:05:00,
2013-03-26 03:20:00,76.5,72.0,29.93,SE,144,0.0,2.0,87,0.00,,,0.00,0,weatherlink.com 1.10,2013-03-26 07:20:00,
2013-03-26 03:35:00,76.4,72.0,29.93,SE,144,0.0,1.0,87,0.00,,,0.00,0,weatherlink.com 1.10,2013-03-26 07:35:00,
2013-03-26 03:50:00,76.3,73.0,29.93,SE,144,0.0,1.0,88,0.00,,,0.00,0,weatherlink.com 1.10,2013-03-26 07:50:00,
2013-03-26 04:05:00,76.2,73.0,29.93,SE,144,0.0,4.0,88,0.00,,,0.00,0,weatherlink.com 1.10,2013-03-26 08:05:00,
2013-03-26 04:20:00,76.3,73.0,29.93,SE,144,1.0,2.0,88,0.00,,,0.00,0,weatherlink.com 1.10,2013-03-26 08:20:00,
2013-03-26 04:40:00,76.3,73.0,29.93,SE,144,2.0,3.0,88,0.00,,,0.00,0,weatherlink.com 1.10,2013-03-26 08:40:00,
2013-03-26 04:50:00,76.2,72.0,29.94,SE,144,0.0,2.0,87,0.00,,,0.00,0,weatherlink.com 1.10,2013-03-26 08:50:00,
2013-03-26 05:05:00,76.2,72.0,29.94,SE,144,2.0,4.0,87,0.00,,,0.00,0,weatherlink.com 1.10,2013-03-26 09:05:00,
2013-03-26 05:20:00,76.1,72.0,29.94,SE,140,0.0,2.0,87,0.00,,,0.00,0,weatherlink.com 1.10,2013-03-26 09:20:00,
2013-03-26 05:35:00,76.2,72.0,29.95,SE,140,0.0,1.0,87,0.00,,,0.00,0,weatherlink.com 1.10,2013-03-26 09:35:00,
2013-03-26 05:51:00,76.1,72.0,29.96,SE,140,0.0,1.0,87,0.00,,,0.00,0,weatherlink.com 1.10,2013-03-26 09:51:00,
2013-03-26 06:06:00,76.0,72.0,29.96,SE,140,0.0,3.0,88,0.00,,,0.00,0,weatherlink.com 1.10,2013-03-26 10:06:00,
2013-03-26 06:21:00,75.9,72.0,29.96,SE,140,0.0,4.0,88,0.00,,,0.00,0,weatherlink.com 1.10,2013-03-26 10:21:00,
2013-03-26 06:36:00,75.8,72.0,29.97,SE,140,0.0,3.0,88,0.00,,,0.00,11,weatherlink.com 1.10,2013-03-26 10:36:00,
2013-03-26 06:51:00,75.9,72.0,29.98,SE,140,2.0,4.0,88,0.00,,,0.00,18,weatherlink.com 1.10,2013-03-26 10:51:00,
2013-03-26 07:06:00,76.0,72.0,29.98,SE,140,1.0,5.0,88,0.00,,,0.00,39,weatherlink.com 1.10,2013-03-26 11:06:00,
2013-03-26 07:21:00,76.3,73.0,29.98,SE,136,0.0,5.0,88,0.00,,,0.00,88,weatherlink.com 1.10,2013-03-26 11:21:00,
2013-03-26 08:21:00,79.0,73.0,30.01,SSE,157,2.0,5.0,82,0.00,,,0.00,427,weatherlink.com 1.10,2013-03-26 12:21:00,
2013-03-26 08:36:00,80.0,73.0,30.00,SSE,167,2.0,4.0,78,0.00,,,0.00,174,weatherlink.com 1.10,2013-03-26 12:36:00,
2013-03-26 08:51:00,80.8,73.0,30.00,SSE,147,2.0,5.0,77,0.00,,,0.00,540,weatherlink.com 1.10,2013-03-26 12:51:00,
2013-03-26 09:06:00,82.5,73.0,30.00,SSE,161,5.0,8.0,72,0.00,,,0.00,606,weatherlink.com 1.10,2013-03-26 13:06:00,
2013-03-26 09:21:00,83.5,72.0,30.01,South,182,2.0,7.0,68,0.00,,,0.00,657,weatherlink.com 1.10,2013-03-26 13:21:00,
2013-03-26 09:36:00,84.2,73.0,30.00,East,88,0.0,9.0,69,0.00,,,0.00,142,weatherlink.com 1.10,2013-03-26 13:36:00,
2013-03-26 09:51:00,83.2,73.0,30.01,ENE,69,8.0,8.0,72,0.00,,,0.00,323,weatherlink.com 1.10,2013-03-26 13:51:00,
2013-03-26 10:06:00,83.6,74.0,30.01,NE,55,2.0,8.0,72,0.00,,,0.00,137,weatherlink.com 1.10,2013-03-26 14:06:00,
2013-03-26 10:21:00,83.5,73.0,30.01,NE,55,4.0,11.0,71,0.00,,,0.00,870,weatherlink.com 1.10,2013-03-26 14:21:00,
2013-03-26 10:36:00,83.9,73.0,30.01,ENE,57,4.0,11.0,70,0.00,,,0.00,265,weatherlink.com 1.10,2013-03-26 14:36:00,
2013-03-26 10:51:00,86.1,76.0,30.00,NE,37,6.0,11.0,72,0.00,,,0.00,925,weatherlink.com 1.10,2013-03-26 14:51:00,
2013-03-26 11:06:00,86.5,76.0,30.00,NE,55,7.0,15.0,70,0.00,,,0.00,911,weatherlink.com 1.10,2013-03-26 15:06:00,
2013-03-26 11:21:00,86.7,76.0,29.99,NE,34,5.0,15.0,71,0.00,,,0.00,237,weatherlink.com 1.10,2013-03-26 15:21:00,
2013-03-26 11:36:00,84.7,76.0,29.99,ESE,109,13.0,14.0,74,0.00,,,0.00,199,weatherlink.com 1.10,2013-03-26 15:36:00,
2013-03-26 11:51:00,84.5,75.0,29.99,East,95,7.0,14.0,74,0.00,,,0.00,183,weatherlink.com 1.10,2013-03-26 15:51:00,
2013-03-26 12:07:00,84.5,75.0,29.98,NE,53,7.0,17.0,74,0.00,,,0.00,302,weatherlink.com 1.10,2013-03-26 16:07:00,
2013-03-26 12:22:00,85.8,76.0,29.97,ENE,71,4.0,13.0,72,0.00,,,0.00,1037,weatherlink.com 1.10,2013-03-26 16:22:00,
2013-03-26 12:37:00,85.2,75.0,29.96,ENE,67,8.0,16.0,71,0.00,,,0.00,181,weatherlink.com 1.10,2013-03-26 16:37:00,
2013-03-26 12:52:00,86.7,72.0,29.96,ESE,111,4.0,16.0,61,0.00,,,0.00,925,weatherlink.com 1.10,2013-03-26 16:52:00,
2013-03-26 13:07:00,89.5,68.0,29.95,SE,134,5.0,11.0,49,0.00,,,0.00,998,weatherlink.com 1.10,2013-03-26 17:07:00,
2013-03-26 13:22:00,91.9,67.0,29.95,ESE,121,9.0,13.0,44,0.00,,,0.00,954,weatherlink.com 1.10,2013-03-26 17:22:00,
2013-03-26 13:37:00,92.5,68.0,29.94,SSE,166,6.0,14.0,44,0.00,,,0.00,909,weatherlink.com 1.10,2013-03-26 17:37:00,
2013-03-26 13:52:00,92.4,65.0,29.93,SSE,155,1.0,17.0,40,0.00,,,0.00,896,weatherlink.com 1.10,2013-03-26 17:52:00,
2013-03-26 14:07:00,92.9,67.0,29.92,South,180,5.0,15.0,42,0.00,,,0.00,868,weatherlink.com 1.10,2013-03-26 18:07:00,
2013-03-26 14:22:00,92.3,67.0,29.92,ESE,117,9.0,15.0,43,0.00,,,0.00,838,weatherlink.com 1.10,2013-03-26 18:22:00,
2013-03-26 14:37:00,93.0,67.0,29.91,SE,133,11.0,14.0,42,0.00,,,0.00,796,weatherlink.com 1.10,2013-03-26 18:37:00,
2013-03-26 14:52:00,92.8,66.0,29.91,SE,139,0.0,15.0,42,0.00,,,0.00,756,weatherlink.com 1.10,2013-03-26 18:52:00,
2013-03-26 15:07:00,92.2,66.0,29.91,SE,136,9.0,15.0,42,0.00,,,0.00,715,weatherlink.com 1.10,2013-03-26 19:07:00,
2013-03-26 15:22:00,92.8,66.0,29.90,ESE,113,14.0,18.0,41,0.00,,,0.00,675,weatherlink.com 1.10,2013-03-26 19:22:00,
2013-03-26 15:37:00,92.2,65.0,29.90,SE,131,9.0,22.0,41,0.00,,,0.00,622,weatherlink.com 1.10,2013-03-26 19:37:00,
2013-03-26 15:52:00,91.7,63.0,29.89,ESE,113,14.0,18.0,39,0.00,,,0.00,571,weatherlink.com 1.10,2013-03-26 19:52:00,
2013-03-26 16:07:00,91.1,64.0,29.89,SE,128,8.0,18.0,41,0.00,,,0.00,522,weatherlink.com 1.10,2013-03-26 20:07:00,
2013-03-26 16:22:00,90.7,65.0,29.89,SE,124,10.0,18.0,42,0.00,,,0.00,466,weatherlink.com 1.10,2013-03-26 20:22:00,
2013-03-26 16:37:00,90.2,65.0,29.89,ESE,116,9.0,17.0,44,0.00,,,0.00,406,weatherlink.com 1.10,2013-03-26 20:37:00,
2013-03-26 16:52:00,88.9,66.0,29.89,SE,140,6.0,15.0,47,0.00,,,0.00,352,weatherlink.com 1.10,2013-03-26 20:52:00,
2013-03-26 17:07:00,88.2,67.0,29.90,SSE,148,11.0,16.0,49,0.00,,,0.00,251,weatherlink.com 1.10,2013-03-26 21:07:00,
2013-03-26 17:22:00,87.7,68.0,29.90,SE,124,2.0,19.0,52,0.00,,,0.00,229,weatherlink.com 1.10,2013-03-26 21:22:00,
2013-03-26 17:37:00,86.8,67.0,29.91,SE,139,10.0,21.0,51,0.00,,,0.00,167,weatherlink.com 1.10,2013-03-26 21:37:00,
2013-03-26 17:52:00,86.1,68.0,29.91,SSW,201,6.0,17.0,55,0.00,,,0.00,104,weatherlink.com 1.10,2013-03-26 21:52:00,
2013-03-26 18:07:00,85.7,68.0,29.91,SE,126,6.0,11.0,56,0.00,,,0.00,39,weatherlink.com 1.10,2013-03-26 22:07:00,
2013-03-26 18:37:00,83.4,69.0,29.93,ESE,107,2.0,17.0,62,0.00,,,0.00,5,weatherlink.com 1.10,2013-03-26 22:37:00,
2013-03-26 18:52:00,82.8,70.0,29.93,ESE,113,7.0,14.0,65,0.00,,,0.00,0,weatherlink.com 1.10,2013-03-26 22:52:00,
2013-03-26 19:07:00,82.3,70.0,29.94,SSE,155,5.0,16.0,67,0.00,,,0.00,0,weatherlink.com 1.10,2013-03-26 23:07:00,
2013-03-26 19:22:00,81.7,71.0,29.95,SE,126,6.0,13.0,69,0.00,,,0.00,0,weatherlink.com 1.10,2013-03-26 23:22:00,
2013-03-26 19:37:00,81.1,71.0,29.95,SE,132,4.0,12.0,71,0.00,,,0.00,0,weatherlink.com 1.10,2013-03-26 23:37:00,
2013-03-26 19:52:00,80.9,72.0,29.96,ESE,111,9.0,13.0,73,0.00,,,0.00,0,weatherlink.com 1.10,2013-03-26 23:52:00,
2013-03-26 20:07:00,80.4,71.0,29.96,ESE,120,5.0,12.0,74,0.00,,,0.00,0,weatherlink.com 1.10,2013-03-27 00:07:00,
2013-03-26 20:22:00,80.3,72.0,29.97,SSE,161,1.0,6.0,75,0.00,,,0.00,0,weatherlink.com 1.10,2013-03-27 00:22:00,
2013-03-26 20:37:00,80.0,72.0,29.98,SSE,150,3.0,6.0,76,0.00,,,0.00,0,weatherlink.com 1.10,2013-03-27 00:37:00,
2013-03-26 20:52:00,79.8,72.0,29.99,SSE,159,3.0,7.0,77,0.00,,,0.00,0,weatherlink.com 1.10,2013-03-27 00:52:00,
2013-03-26 21:07:00,79.7,72.0,29.99,SSE,153,0.0,6.0,77,0.00,,,0.00,0,weatherlink.com 1.10,2013-03-27 01:07:00,
2013-03-26 21:22:00,79.5,72.0,30.00,South,171,0.0,6.0,77,0.00,,,0.00,0,weatherlink.com 1.10,2013-03-27 01:22:00,
2013-03-26 21:37:00,79.4,72.0,30.00,SE,129,0.0,7.0,78,0.00,,,0.00,0,weatherlink.com 1.10,2013-03-27 01:37:00,
2013-03-26 21:52:00,79.3,72.0,30.00,South,175,0.0,4.0,78,0.00,,,0.00,0,weatherlink.com 1.10,2013-03-27 01:52:00,
2013-03-26 22:07:00,79.0,72.0,30.01,SE,138,1.0,5.0,78,0.00,,,0.00,0,weatherlink.com 1.10,2013-03-27 02:07:00,
2013-03-26 22:22:00,78.8,72.0,30.02,SE,138,0.0,3.0,79,0.00,,,0.00,0,weatherlink.com 1.10,2013-03-27 02:22:00,
2013-03-26 22:37:00,78.7,72.0,30.02,SE,138,2.0,4.0,80,0.00,,,0.00,0,weatherlink.com 1.10,2013-03-27 02:37:00,
2013-03-26 22:55:00,78.7,72.0,30.02,SE,138,0.0,4.0,81,0.00,,,0.00,0,weatherlink.com 1.10,2013-03-27 02:55:00,
2013-03-26 23:07:00,78.4,72.0,30.02,South,178,3.0,5.0,81,0.00,,,0.00,0,weatherlink.com 1.10,2013-03-27 03:07:00,
2013-03-26 23:22:00,78.3,72.0,30.01,South,172,3.0,4.0,81,0.00,,,0.00,0,weatherlink.com 1.10,2013-03-27 03:22:00,
2013-03-26 23:37:00,78.1,72.0,30.00,SSE,161,3.0,5.0,82,0.00,,,0.00,0,weatherlink.com 1.10,2013-03-27 03:37:00,
2013-03-26 23:52:00,77.9,72.0,30.00,South,175,3.0,6.0,82,0.00,,,0.00,0,weatherlink.com 1.10,2013-03-27 03:52:00,